Time;durP1;ratioP1;P1;durP2;ratioP2;P2;SDS_P1;SDS_P2;PMS_P1;PMS_P2;Temp;Humidity;BMP_temperature;BMP_pressure;BME280_temperature;BME280_humidity;BME280_pressure;Samples;Min_cycle;Max_cycle;Signal;HPM_P1;HPM_P2
2022/04/02 00:03:43;;;;;;;7.30;3.20;;;;;;;-0.17;63.78;99625.22;3574489;81;98394;-82
2022/04/02 00:08:44;;;;;;;11.17;3.73;;;;;;;-0.26;64.80;99615.22;3602077;82;98410;-81
2022/04/02 00:13:45;;;;;;;10.13;4.13;;;;;;;-0.33;65.66;99613.37;3590683;81;98669;-82
2022/04/02 00:18:49;;;;;;;8.07;2.80;;;;;;;-0.39;65.80;99609.27;3561601;81;98581;-82
2022/04/02 00:23:49;;;;;;;11.73;4.22;;;;;;;-0.45;65.79;99609.98;3571166;81;98255;-82
2022/04/02 00:28:51;;;;;;;8.33;3.50;;;;;;;-0.49;65.63;99606.91;3576536;81;98830;-82
2022/04/02 00:33:52;;;;;;;8.43;2.87;;;;;;;-0.55;65.44;99606.28;3544697;81;98695;-82
2022/04/02 00:38:52;;;;;;;9.80;4.00;;;;;;;-0.61;66.19;99603.52;3545109;81;99110;-81
2022/04/02 00:43:58;;;;;;;11.73;3.00;;;;;;;-0.67;65.97;99608.88;3574689;80;98753;-82
2022/04/02 00:48:59;;;;;;;7.87;2.87;;;;;;;-0.70;66.04;99608.19;3590408;81;26463;-82
2022/04/02 00:54:01;;;;;;;12.03;3.07;;;;;;;-0.74;66.59;99606.42;3560275;81;98548;-83
2022/04/02 00:59:02;;;;;;;10.73;3.20;;;;;;;-0.81;66.78;99609.64;3554828;81;98927;-83
2022/04/02 01:04:04;;;;;;;13.43;5.83;;;;;;;-0.86;66.77;99607.11;3578337;81;99191;-84
2022/04/02 01:09:05;;;;;;;10.40;3.47;;;;;;;-0.91;66.62;99608.63;3566432;81;98889;-85
2022/04/02 01:14:07;;;;;;;9.20;2.67;;;;;;;-0.97;66.86;99607.77;3569838;82;99122;-84
2022/04/02 01:19:08;;;;;;;13.00;2.60;;;;;;;-1.04;67.69;99611.52;3578360;81;26545;-83
2022/04/02 01:24:09;;;;;;;11.90;4.30;;;;;;;-1.11;67.78;99610.64;3559136;81;98606;-83
2022/04/02 01:29:10;;;;;;;7.90;2.63;;;;;;;-1.17;68.34;99609.22;3552732;82;98701;-84
2022/04/02 01:34:11;;;;;;;7.30;2.83;;;;;;;-1.23;68.82;99617.80;3556350;81;98703;-82
2022/04/02 01:39:12;;;;;;;7.07;3.03;;;;;;;-1.30;69.67;99616.95;3556673;82;98616;-83
2022/04/02 01:44:13;;;;;;;11.13;3.07;;;;;;;-1.34;69.96;99617.88;3563687;82;98650;-83
2022/04/02 01:49:15;;;;;;;9.47;4.10;;;;;;;-1.38;70.49;99615.03;3568214;81;32212;-81
2022/04/02 01:54:21;;;;;;;8.53;3.10;;;;;;;-1.42;71.21;99616.77;3546157;81;98776;-82
2022/04/02 01:59:19;;;;;;;11.70;4.20;;;;;;;-1.44;71.11;99622.24;3593614;81;98467;-81
2022/04/02 02:04:21;;;;;;;8.20;2.80;;;;;;;-1.48;71.50;99622.66;3568837;80;98935;-81
2022/04/02 02:09:22;;;;;;;8.27;3.03;;;;;;;-1.51;72.00;99634.08;3577028;80;98707;-81
2022/04/02 02:14:23;;;;;;;7.30;2.80;;;;;;;-1.54;71.13;99644.94;3577712;80;98351;-81
2022/04/02 02:19:24;;;;;;;8.80;3.17;;;;;;;-1.57;71.85;99639.39;3585256;82;31700;-81
2022/04/02 02:24:25;;;;;;;8.50;3.20;;;;;;;-1.59;71.61;99649.14;3573699;82;98591;-81
2022/04/02 02:29:26;;;;;;;8.23;3.00;;;;;;;-1.62;71.77;99643.05;3576049;82;98581;-81
2022/04/02 02:39:47;;;;;;;7.87;2.87;;;;;;;-1.67;72.36;99643.73;3600616;82;98879;-81
2022/04/02 02:44:48;;;;;;;9.43;2.40;;;;;;;-1.69;72.60;99651.36;3585954;81;98676;-81
2022/04/02 02:49:49;;;;;;;7.60;2.73;;;;;;;-1.74;72.67;99656.36;3579803;80;98736;-81
2022/04/02 02:54:50;;;;;;;7.67;2.80;;;;;;;-1.78;72.81;99654.05;3549846;82;98845;-81
2022/04/02 02:59:51;;;;;;;10.20;3.40;;;;;;;-1.81;73.24;99656.00;3571307;81;98523;-82
2022/04/02 03:04:52;;;;;;;6.83;2.90;;;;;;;-1.84;73.20;99651.26;3572885;81;98855;-81
2022/04/02 03:09:53;;;;;;;10.63;3.67;;;;;;;-1.86;73.33;99652.67;3594560;82;98729;-80
2022/04/02 03:14:54;;;;;;;8.93;3.30;;;;;;;-1.89;73.86;99647.36;3569973;81;98832;-81
2022/04/02 03:19:55;;;;;;;14.10;4.67;;;;;;;-1.90;73.81;99640.38;3599950;81;98697;-81
2022/04/02 03:24:56;;;;;;;12.50;3.43;;;;;;;-1.92;73.36;99645.27;3582282;81;98575;-81
2022/04/02 03:29:57;;;;;;;10.60;2.90;;;;;;;-1.92;73.99;99647.19;3576452;81;98641;-81
2022/04/02 03:34:59;;;;;;;7.50;2.80;;;;;;;-1.94;73.31;99649.39;3581775;81;98722;-81
2022/04/02 03:40:00;;;;;;;12.13;3.43;;;;;;;-1.93;73.52;99655.02;3591358;81;98597;-81
2022/04/02 03:45:02;;;;;;;8.63;2.80;;;;;;;-1.94;73.41;99656.13;3590930;81;98772;-81
2022/04/02 03:50:04;;;;;;;6.63;2.77;;;;;;;-1.95;73.36;99656.70;3573863;80;98763;-80
2022/04/02 03:55:06;;;;;;;10.63;3.00;;;;;;;-1.95;73.69;99657.24;3568990;80;98306;-81
2022/04/02 04:00:09;;;;;;;8.03;2.57;;;;;;;-1.98;73.50;99661.93;3579684;81;98628;-80
2022/04/02 04:05:10;;;;;;;7.97;2.40;;;;;;;-1.99;73.20;99667.86;3561693;82;98401;-81
2022/04/02 04:10:11;;;;;;;6.50;2.50;;;;;;;-1.99;73.13;99673.80;3562970;82;98669;-81
2022/04/02 04:15:12;;;;;;;10.07;2.83;;;;;;;-1.99;72.92;99674.60;3564317;81;98950;-80
2022/04/02 04:20:13;;;;;;;8.50;2.73;;;;;;;-2.00;72.83;99674.91;3592530;81;99182;-81
2022/04/02 04:25:14;;;;;;;10.27;2.60;;;;;;;-2.01;72.90;99689.50;3573938;81;98154;-81
2022/04/02 04:30:15;;;;;;;8.83;3.03;;;;;;;-2.04;72.89;99696.31;3555009;81;99191;-81
2022/04/02 04:35:16;;;;;;;10.93;3.00;;;;;;;-2.05;72.68;99700.12;3561592;82;98474;-81
2022/04/02 04:40:17;;;;;;;8.80;3.40;;;;;;;-2.07;72.80;99698.84;3569565;81;99312;-82
2022/04/02 04:45:19;;;;;;;9.10;3.63;;;;;;;-2.11;72.53;99695.97;3549743;82;99111;-82
2022/04/02 04:50:19;;;;;;;7.93;3.00;;;;;;;-2.13;73.19;99706.25;3576897;81;98928;-82
2022/04/02 04:55:21;;;;;;;8.53;3.00;;;;;;;-2.14;73.29;99706.59;3577861;81;98185;-82
2022/04/02 05:00:23;;;;;;;7.00;3.27;;;;;;;-2.15;73.34;99711.17;3600172;82;97747;-82
2022/04/02 05:05:25;;;;;;;9.83;3.00;;;;;;;-2.14;73.41;99712.75;3570083;81;98907;-81
2022/04/02 05:10:27;;;;;;;7.87;3.03;;;;;;;-2.11;73.60;99716.19;3583482;81;98976;-82
2022/04/02 05:15:28;;;;;;;9.83;3.07;;;;;;;-2.08;74.28;99714.20;3589374;81;98611;-83
2022/04/02 05:20:29;;;;;;;7.77;2.50;;;;;;;-2.01;74.01;99717.27;3518495;82;98640;-83
2022/04/02 05:25:31;;;;;;;4.95;2.42;;;;;;;-1.95;74.41;99720.60;3504290;82;98695;-83
2022/04/02 05:30:34;;;;;;;6.07;2.50;;;;;;;-1.88;74.29;99731.18;3584745;81;98587;-83
2022/04/02 05:35:35;;;;;;;7.00;2.70;;;;;;;-1.79;74.29;99738.75;3586362;82;98438;-83
2022/04/02 05:40:39;;;;;;;6.27;2.60;;;;;;;-1.71;74.51;99730.45;3577232;81;99037;-83
2022/04/02 05:45:40;;;;;;;11.20;2.72;;;;;;;-1.72;74.41;99717.51;3580966;81;98619;-84
2022/04/02 05:50:42;;;;;;;8.00;2.77;;;;;;;-1.50;74.89;99739.53;3570184;82;99246;-84
2022/04/02 05:55:43;;;;;;;7.75;2.60;;;;;;;-1.38;74.82;99743.21;3566114;81;98206;-83
2022/04/02 06:00:44;;;;;;;9.43;3.03;;;;;;;-1.26;74.66;99743.95;3578529;81;98355;-83
2022/04/02 06:05:46;;;;;;;9.07;2.27;;;;;;;-1.15;74.94;99749.29;3567680;82;98533;-84
2022/04/02 06:10:47;;;;;;;13.32;3.67;;;;;;;-0.99;75.09;99753.11;3595150;81;99121;-85
2022/04/02 06:15:49;;;;;;;8.60;2.73;;;;;;;-0.81;75.28;99756.05;3567099;81;99191;-83
2022/04/02 06:20:50;;;;;;;6.47;2.07;;;;;;;-0.62;75.07;99759.23;3529583;81;99185;-84
2022/04/02 06:25:52;;;;;;;10.40;2.67;;;;;;;-0.40;74.84;99760.39;3589747;81;98951;-83
2022/04/02 06:30:53;;;;;;;7.97;2.50;;;;;;;-0.17;74.46;99759.30;3597156;81;27499;-83
2022/04/02 06:35:55;;;;;;;10.07;2.53;;;;;;;0.05;74.14;99759.61;3588306;81;98786;-83
2022/04/02 06:40:56;;;;;;;8.17;2.37;;;;;;;0.29;73.51;99767.97;3584860;81;98578;-83
2022/04/02 06:45:57;;;;;;;7.07;2.63;;;;;;;0.52;73.03;99767.94;3559781;81;98293;-83
2022/04/02 06:50:58;;;;;;;7.42;2.47;;;;;;;0.72;72.49;99769.32;3568805;81;98714;-84
2022/04/02 06:55:59;;;;;;;9.10;2.27;;;;;;;0.97;72.13;99768.92;3560855;81;98340;-83
2022/04/02 07:01:00;;;;;;;6.60;2.20;;;;;;;1.18;70.49;99775.95;3577818;81;31695;-82
2022/04/02 07:06:01;;;;;;;7.93;2.50;;;;;;;1.34;70.23;99779.66;3563279;80;98501;-83
2022/04/02 07:11:02;;;;;;;7.53;2.10;;;;;;;1.54;69.11;99788.89;3571899;81;98342;-80
2022/04/02 07:16:03;;;;;;;25.77;4.27;;;;;;;1.69;67.92;99786.92;3531954;81;98360;-80
2022/04/02 07:21:05;;;;;;;9.43;2.87;;;;;;;1.78;66.67;99805.25;3570176;81;98465;-80
2022/04/02 07:26:07;;;;;;;5.70;1.93;;;;;;;1.87;66.67;99793.76;3562581;81;98845;-80
2022/04/02 07:31:09;;;;;;;4.40;2.00;;;;;;;2.00;65.56;99795.36;3571250;81;32608;-80
2022/04/02 07:36:31;;;;;;;5.27;1.73;;;;;;;2.11;64.70;99802.75;3565560;81;98666;-80
2022/04/02 07:42:04;;;;;;;7.00;2.25;;;;;;;2.25;63.53;99799.14;3567088;81;98664;-81
2022/04/02 07:47:11;;;;;;;48.53;8.60;;;;;;;2.34;62.83;99810.70;3569067;81;98950;-82
2022/04/02 07:52:13;;;;;;;10.85;3.05;;;;;;;2.50;61.68;99804.84;3563832;81;98613;-80
2022/04/02 07:57:14;;;;;;;7.97;2.43;;;;;;;2.71;60.64;99796.58;3566578;82;98495;-81
2022/04/02 08:07:43;;;;;;;6.60;2.10;;;;;;;2.96;58.11;99806.31;3559073;82;31725;-81
2022/04/02 08:12:45;;;;;;;7.10;2.12;;;;;;;3.23;56.31;99809.09;3576836;81;98281;-82
2022/04/02 08:17:52;;;;;;;5.87;1.87;;;;;;;3.43;54.64;99806.78;3593603;81;98574;-82
2022/04/02 08:22:56;;;;;;;8.38;1.85;;;;;;;3.69;52.91;99822.12;3565350;81;98324;-82
2022/04/02 08:28:08;;;;;;;5.60;1.80;;;;;;;3.88;50.35;99822.84;3583009;81;98286;-83
2022/04/02 08:33:26;;;;;;;7.60;1.62;;;;;;;4.09;49.38;99822.84;3547648;81;98425;-82
2022/04/02 08:38:48;;;;;;;55.43;8.93;;;;;;;4.33;48.47;99832.80;3612060;80;98808;-81
2022/04/02 08:44:43;;;;;;;9.33;1.93;;;;;;;4.64;48.09;99833.61;3593852;81;98415;-83
2022/04/02 08:50:13;;;;;;;66.50;9.10;;;;;;;5.04;47.60;99831.48;3611219;81;32373;-83
2022/04/02 08:55:23;;;;;;;6.00;1.83;;;;;;;5.39;47.32;99854.10;3566403;81;98099;-82
2022/04/02 09:00:27;;;;;;;7.45;2.40;;;;;;;5.59;44.20;99851.63;3587882;80;98510;-83
2022/04/02 09:06:11;;;;;;;9.83;2.90;;;;;;;5.96;45.34;99859.66;3569292;81;98414;-82
2022/04/02 09:11:29;;;;;;;8.38;2.40;;;;;;;6.71;45.73;99850.31;3560559;81;98657;-83
2022/04/02 09:16:56;;;;;;;8.17;1.93;;;;;;;7.47;44.39;99852.09;3582225;80;98288;-81
2022/04/02 09:22:00;;;;;;;;;;;;;;;7.87;45.91;99852.82;3567810;80;98272;-80
2022/04/02 09:27:19;;;;;;;9.28;2.45;;;;;;;7.77;41.63;99844.69;3575581;80;83579;-82
2022/04/02 09:33:02;;;;;;;10.95;2.80;;;;;;;8.10;44.55;99837.05;3569739;81;98562;-81
2022/04/02 09:38:47;;;;;;;21.12;4.12;;;;;;;8.35;42.34;99845.00;3591913;82;33446;-84
2022/04/02 09:43:56;;;;;;;13.88;2.50;;;;;;;8.66;43.16;99841.19;3578938;81;98251;-82
2022/04/02 09:49:26;;;;;;;8.58;1.92;;;;;;;9.73;45.64;99836.86;3563115;81;98218;-81
2022/04/02 09:54:45;;;;;;;10.32;2.00;;;;;;;9.94;37.86;99847.16;3583203;80;98511;-82
2022/04/02 10:00:07;;;;;;;7.22;2.27;;;;;;;9.81;37.96;99841.81;3549329;81;98752;-82
2022/04/02 10:05:14;;;;;;;15.30;2.57;;;;;;;9.64;37.28;99829.55;3537760;81;98996;-85
2022/04/02 10:10:16;;;;;;;9.63;2.12;;;;;;;10.23;37.50;99845.53;3561603;81;98728;-83
2022/04/02 10:15:20;;;;;;;7.08;1.87;;;;;;;10.72;37.84;99839.33;3539435;81;99041;-85
2022/04/02 10:20:28;;;;;;;8.50;2.08;;;;;;;10.62;36.37;99827.72;3572256;81;33270;-83
2022/04/02 10:25:31;;;;;;;9.85;2.00;;;;;;;11.12;37.63;99825.20;3579871;81;99236;-84
2022/04/02 10:30:33;;;;;;;;;;;;;;;11.53;35.67;99826.29;3590183;81;98829;-84
2022/04/02 10:35:34;;;;;;;16.80;2.30;;;;;;;11.44;34.35;99832.22;3564932;81;85062;-82
2022/04/02 10:40:46;;;;;;;15.27;3.23;;;;;;;11.50;35.70;99822.36;3567302;81;99389;-81
2022/04/02 10:45:48;;;;;;;14.40;2.70;;;;;;;11.92;33.67;99818.13;3559433;80;98989;-81
2022/04/02 10:50:50;;;;;;;8.43;2.72;;;;;;;12.26;34.54;99828.79;3558026;81;99461;-80
2022/04/02 10:56:00;;;;;;;18.57;2.60;;;;;;;12.51;33.16;99839.69;3558709;82;98490;-82
2022/04/02 11:01:06;;;;;;;11.18;2.27;;;;;;;12.13;33.91;99835.16;3537607;81;98797;-81
2022/04/02 11:06:08;;;;;;;12.18;2.33;;;;;;;12.35;33.27;99822.83;3504638;81;98673;-81
2022/04/02 11:11:18;;;;;;;10.78;2.58;;;;;;;12.50;33.63;99813.28;3546762;81;98885;-84
2022/04/02 11:16:25;;;;;;;9.57;2.47;;;;;;;12.55;33.19;99809.52;3545466;80;98788;-84
2022/04/02 11:21:31;;;;;;;13.45;3.27;;;;;;;12.63;33.84;99812.41;3552805;81;99208;-84
2022/04/02 11:26:37;;;;;;;12.37;2.72;;;;;;;12.61;32.36;99818.94;3553528;81;26375;-84
2022/04/02 11:31:44;;;;;;;13.22;3.37;;;;;;;12.32;33.34;99817.52;3547322;81;98832;-84
2022/04/02 11:36:47;;;;;;;;;;;;;;;12.32;32.69;99818.90;3544228;81;98716;-83
2022/04/02 11:41:52;;;;;;;12.60;2.75;;;;;;;12.57;32.24;99804.95;3536145;80;85620;-82
2022/04/02 11:47:07;;;;;;;8.40;2.35;;;;;;;12.45;31.09;99812.33;3533476;81;99265;-80
2022/04/02 11:52:14;;;;;;;8.93;2.22;;;;;;;11.93;31.38;99804.52;3549507;81;99281;-82
2022/04/02 11:57:17;;;;;;;9.65;2.70;;;;;;;11.89;32.78;99801.60;3562643;81;99404;-81
2022/04/02 12:02:42;;;;;;;13.90;3.77;;;;;;;12.00;32.05;99803.72;3544168;82;98372;-81
2022/04/02 12:07:51;;;;;;;12.55;3.30;;;;;;;11.77;30.98;99821.34;3526772;82;98461;-81
2022/04/02 12:12:55;;;;;;;6.37;2.22;;;;;;;11.44;31.85;99797.78;3543156;81;98730;-80
2022/04/02 12:18:08;;;;;;;7.92;2.33;;;;;;;11.36;32.03;99803.70;3478842;83;99061;-82
2022/04/02 12:23:14;;;;;;;6.92;2.17;;;;;;;11.37;31.98;99805.27;3468696;83;98862;-82
2022/04/02 12:28:18;;;;;;;12.10;2.42;;;;;;;11.34;32.41;99812.97;3495869;82;99045;-84
2022/04/02 12:33:25;;;;;;;12.15;2.67;;;;;;;11.32;31.99;99800.16;3404621;85;99026;-83
2022/04/02 12:38:30;;;;;;;6.95;2.15;;;;;;;11.08;32.64;99813.39;3451813;84;33282;-83
2022/04/02 12:43:35;;;;;;;7.85;2.42;;;;;;;11.08;32.64;99813.39;3452412;84;99332;-83
2022/04/02 12:48:45;;;;;;;6.43;2.20;;;;;;;11.19;32.41;99797.06;3459420;85;98832;-83
2022/04/02 12:53:49;;;;;;;7.37;2.52;;;;;;;10.92;31.55;99813.00;3456464;85;99039;-83
2022/04/02 12:58:52;;;;;;;10.65;2.17;;;;;;;10.77;32.54;99799.03;3451462;84;98691;-83
2022/04/02 13:04:04;;;;;;;8.50;2.62;;;;;;;10.40;31.68;99788.40;3451099;83;99332;-83
2022/04/02 13:09:18;;;;;;;17.15;3.20;;;;;;;10.51;33.04;99804.33;3465822;84;98845;-84
2022/04/02 13:14:38;;;;;;;9.78;2.27;;;;;;;10.63;32.55;99812.20;3449524;84;99000;-83
2022/04/02 13:25:24;;;;;;;9.20;3.22;;;;;;;10.12;32.45;99782.05;3459541;83;98502;-82
2022/04/02 13:30:40;;;;;;;8.30;2.77;;;;;;;10.19;33.70;99814.48;3467477;84;98966;-80
2022/04/02 13:35:51;;;;;;;10.03;2.52;;;;;;;10.19;33.04;99824.10;3467284;83;98706;-83
2022/04/02 13:40:56;;;;;;;9.63;2.40;;;;;;;9.96;32.24;99829.11;3469091;84;98897;-83
2022/04/02 13:46:00;;;;;;;7.25;2.50;;;;;;;9.71;32.51;99835.67;3498755;82;98356;-83
2022/04/02 13:51:09;;;;;;;9.53;2.60;;;;;;;9.68;32.62;99841.34;3494914;83;98250;-82
2022/04/02 13:56:19;;;;;;;6.08;2.45;;;;;;;9.58;33.16;99843.45;3489680;83;98296;-82
2022/04/02 14:01:21;;;;;;;22.37;5.53;;;;;;;9.50;33.96;99837.73;3502991;83;98170;-81
2022/04/02 14:06:24;;;;;;;9.38;2.60;;;;;;;9.39;33.69;99845.09;3506047;83;98336;-82
2022/04/02 14:11:36;;;;;;;8.43;3.45;;;;;;;9.20;33.51;99858.29;3507072;82;98372;-81
2022/04/02 14:16:38;;;;;;;11.03;2.40;;;;;;;8.99;33.56;99852.06;3516527;82;98292;-82
2022/04/02 14:21:40;;;;;;;10.10;3.20;;;;;;;8.84;33.65;99847.61;3494387;82;98599;-82
2022/04/02 14:27:22;;;;;;;7.97;2.75;;;;;;;8.79;33.59;99847.96;3576133;81;33301;-81
2022/04/02 14:32:58;;;;;;;8.05;2.20;;;;;;;8.74;34.18;99854.39;3579272;81;98300;-83
2022/04/02 14:38:31;;;;;;;6.60;2.10;;;;;;;8.59;34.66;99845.81;3548431;81;98387;-82
2022/04/02 14:44:02;;;;;;;8.70;2.20;;;;;;;8.64;34.68;99866.05;3579834;81;98386;-83
2022/04/02 14:49:59;;;;;;;7.92;2.08;;;;;;;8.47;34.57;99865.29;3588595;81;98197;-81
2022/04/02 14:55:21;;;;;;;10.68;2.87;;;;;;;8.40;34.81;99872.85;3583594;81;98353;-81
2022/04/02 15:00:53;;;;;;;5.03;2.30;;;;;;;8.38;34.88;99877.13;3606832;80;98587;-82
2022/04/02 15:06:10;;;;;;;10.93;2.20;;;;;;;8.33;35.00;99878.84;3483932;83;98415;-82
2022/04/02 15:11:20;;;;;;;;;;;;;;;8.16;34.89;99883.51;3529626;82;98507;-81
2022/04/02 15:16:30;;;;;;;9.65;2.10;;;;;;;8.00;34.52;99891.94;3459764;83;84719;-81
2022/04/02 15:21:32;;;;;;;9.08;2.52;;;;;;;7.83;35.33;99888.39;3538743;83;100668;-82
2022/04/02 15:26:50;;;;;;;9.13;2.37;;;;;;;7.87;35.60;99891.17;3462584;83;31598;-81
2022/04/02 15:32:10;;;;;;;11.45;2.95;;;;;;;7.88;35.46;99889.44;3507357;83;98445;-81
2022/04/02 15:37:11;;;;;;;6.90;1.85;;;;;;;7.72;35.22;99897.05;3468064;83;98404;-81
2022/04/02 15:42:25;;;;;;;7.55;2.47;;;;;;;7.55;35.52;99908.55;3477338;83;98563;-81
2022/04/02 15:47:45;;;;;;;7.42;2.12;;;;;;;7.37;35.44;99915.68;3508547;82;98635;-81
2022/04/02 15:53:13;;;;;;;9.58;3.77;;;;;;;7.23;35.66;99922.88;3485319;83;98367;-82
2022/04/02 15:58:26;;;;;;;9.38;2.35;;;;;;;7.10;35.97;99925.02;3485894;83;98643;-82
2022/04/02 16:03:36;;;;;;;8.75;3.77;;;;;;;7.03;35.89;99930.38;3477027;83;98359;-81
2022/04/02 16:08:37;;;;;;;7.63;2.50;;;;;;;6.97;35.75;99931.84;3493100;83;26569;-81
2022/04/02 16:13:43;;;;;;;10.83;3.33;;;;;;;6.85;35.62;99944.33;3481051;83;98395;-81
2022/04/02 16:18:45;;;;;;;6.35;2.37;;;;;;;6.74;35.20;99943.91;3490569;84;97488;-81
2022/04/02 16:23:52;;;;;;;6.03;2.40;;;;;;;6.62;35.28;99948.19;3450218;83;98369;-80
2022/04/02 16:28:53;;;;;;;6.53;2.60;;;;;;;6.50;35.41;99957.32;3469578;83;98297;-81
2022/04/02 16:33:56;;;;;;;6.97;2.40;;;;;;;6.40;35.50;99968.05;3473312;83;98351;-80
2022/04/02 16:39:02;;;;;;;8.33;2.37;;;;;;;6.25;35.28;99972.45;3483412;83;32761;-81
2022/04/02 16:44:25;;;;;;;8.40;3.33;;;;;;;6.13;35.72;99973.16;3461920;83;98063;-82
2022/04/02 16:49:31;;;;;;;9.47;2.70;;;;;;;6.01;35.44;99977.38;3490735;83;98278;-80
2022/04/02 16:54:35;;;;;;;11.12;2.60;;;;;;;5.90;35.46;99984.55;3508396;82;98343;-81
2022/04/02 16:59:36;;;;;;;7.10;2.92;;;;;;;5.81;35.99;99992.14;3490024;80;98498;-84
2022/04/02 17:04:40;;;;;;;11.43;4.13;;;;;;;5.64;35.98;99991.13;3520744;82;98418;-85
2022/04/02 17:09:41;;;;;;;8.75;3.52;;;;;;;5.53;36.05;100009.99;3530943;82;98559;-87
2022/04/02 17:14:42;;;;;;;8.40;2.77;;;;;;;5.37;36.60;100014.66;3527321;82;98372;-87
2022/04/02 17:19:45;;;;;;;8.47;2.83;;;;;;;5.21;36.50;100021.24;3522962;82;98697;-84
2022/04/02 17:24:46;;;;;;;9.70;3.23;;;;;;;5.03;36.96;100027.59;3515315;82;98375;-85
2022/04/02 17:29:50;;;;;;;12.07;2.90;;;;;;;4.90;37.04;100040.27;3480880;82;98957;-83
2022/04/02 17:35:00;;;;;;;7.55;2.25;;;;;;;4.72;37.32;100046.63;3517904;82;99145;-84
2022/04/02 17:40:09;;;;;;;10.13;2.70;;;;;;;4.57;37.36;100054.17;3541539;82;97742;-85
2022/04/02 17:45:24;;;;;;;7.90;2.23;;;;;;;4.48;37.75;100064.41;3514733;82;98542;-84
2022/04/02 17:50:28;;;;;;;11.45;3.17;;;;;;;4.33;37.84;100072.52;3547881;80;98092;-84
2022/04/02 17:55:36;;;;;;;21.57;7.10;;;;;;;4.21;38.23;100085.58;3536986;81;98526;-83
2022/04/02 18:00:41;;;;;;;9.00;3.53;;;;;;;4.06;38.08;100105.36;3525074;82;98753;-87
2022/04/02 18:05:45;;;;;;;7.08;3.15;;;;;;;3.92;38.73;100111.70;3516262;82;98572;-83
2022/04/02 18:10:46;;;;;;;6.83;2.67;;;;;;;3.82;39.09;100118.17;3578927;81;98520;-86
2022/04/02 18:15:49;;;;;;;7.37;2.33;;;;;;;3.72;39.72;100131.64;3559829;78;98025;-82
2022/04/02 18:20:53;;;;;;;8.83;3.70;;;;;;;3.62;40.08;100140.27;3561176;80;26191;-86
2022/04/02 18:25:58;;;;;;;11.68;3.70;;;;;;;3.51;40.36;100151.36;3473252;82;98030;-86
2022/04/02 18:31:02;;;;;;;9.15;3.95;;;;;;;3.40;40.76;100158.91;3555651;81;98603;-86
2022/04/02 18:36:06;;;;;;;10.37;4.17;;;;;;;3.31;41.27;100165.80;3546389;81;98454;-86
2022/04/02 18:41:07;;;;;;;6.10;2.60;;;;;;;3.21;41.52;100178.44;3556676;80;98642;-83
2022/04/02 18:46:09;;;;;;;8.73;3.50;;;;;;;3.12;41.99;100183.15;3552518;81;98802;-86
2022/04/02 18:51:11;;;;;;;9.67;3.17;;;;;;;3.02;42.41;100196.37;3486277;82;30539;-85
2022/04/02 18:56:12;;;;;;;8.70;2.87;;;;;;;2.89;42.52;100205.59;3531209;81;99152;-84
2022/04/02 19:01:17;;;;;;;8.07;3.30;;;;;;;2.79;43.00;100205.41;3539961;81;98355;-85
2022/04/02 19:06:18;;;;;;;11.57;3.60;;;;;;;2.70;43.27;100212.84;3528965;81;98886;-86
2022/04/02 19:11:25;;;;;;;8.43;2.73;;;;;;;2.57;43.72;100225.31;3531443;81;98676;-86
2022/04/02 19:16:29;;;;;;;8.50;2.90;;;;;;;2.47;43.94;100226.46;3500075;81;98522;-87
2022/04/02 19:21:32;;;;;;;9.47;3.13;;;;;;;2.39;44.19;100233.30;3525576;81;28624;-86
2022/04/02 19:26:35;;;;;;;8.23;3.10;;;;;;;2.25;44.61;100243.02;3522946;81;98187;-86
2022/04/02 19:31:39;;;;;;;9.00;3.07;;;;;;;2.17;44.97;100254.73;3483538;81;98632;-86
2022/04/02 19:36:43;;;;;;;8.40;3.23;;;;;;;2.09;45.09;100263.69;3513725;81;99114;-85
2022/04/02 19:41:45;;;;;;;10.67;3.90;;;;;;;1.99;45.75;100265.42;3515657;81;98663;-87
2022/04/02 19:46:48;;;;;;;9.57;3.37;;;;;;;1.86;46.24;100265.62;3520295;81;98673;-84
2022/04/02 19:51:53;;;;;;;7.67;2.93;;;;;;;1.79;46.42;100277.50;3498378;82;99065;-85
2022/04/02 19:56:53;;;;;;;9.23;3.33;;;;;;;1.73;46.52;100280.15;3496759;83;98230;-86
2022/04/02 20:01:55;;;;;;;6.67;2.90;;;;;;;1.65;46.82;100278.27;3524839;81;98317;-85
2022/04/02 20:07:09;;;;;;;9.27;2.90;;;;;;;1.57;47.15;100288.00;3523287;81;98583;-87
2022/04/02 20:12:10;;;;;;;8.30;2.80;;;;;;;1.50;47.35;100294.47;3525297;81;98564;-85
2022/04/02 20:17:14;;;;;;;7.30;2.90;;;;;;;1.42;47.61;100295.27;3498258;83;98416;-85
2022/04/02 20:22:16;;;;;;;7.10;2.67;;;;;;;1.33;47.80;100291.77;3496513;81;98484;-86
2022/04/02 20:27:20;;;;;;;6.78;2.75;;;;;;;1.27;48.12;100301.73;3509387;81;98192;-85
2022/04/02 20:32:25;;;;;;;7.93;2.67;;;;;;;1.17;48.37;100312.33;3505386;83;98339;-87
2022/04/02 20:37:29;;;;;;;8.20;2.85;;;;;;;1.10;48.87;100317.41;3448663;83;98399;-86
2022/04/02 20:42:43;;;;;;;8.08;2.75;;;;;;;1.03;49.00;100323.05;3436425;83;98665;-86
2022/04/02 20:47:44;;;;;;;10.60;3.50;;;;;;;0.96;48.95;100322.72;3480386;83;98930;-84
2022/04/02 20:52:47;;;;;;;15.90;4.37;;;;;;;0.89;48.99;100327.24;3461553;82;98634;-84
2022/04/02 20:57:50;;;;;;;15.00;4.87;;;;;;;0.85;49.08;100325.48;3441788;83;98162;-85
2022/04/02 21:02:58;;;;;;;12.40;4.80;;;;;;;0.75;49.47;100329.30;3505499;82;98480;-84
2022/04/02 21:08:00;;;;;;;14.25;5.10;;;;;;;0.60;50.00;100337.06;3506226;82;98855;-83
2022/04/02 21:13:02;;;;;;;11.40;4.30;;;;;;;0.60;50.00;100337.06;3494776;82;98643;-83
2022/04/02 21:18:05;;;;;;;10.07;3.87;;;;;;;0.50;50.14;100344.10;3498383;82;98694;-86
2022/04/02 21:23:08;;;;;;;8.03;3.10;;;;;;;0.39;50.69;100347.62;3467335;83;98678;-84
2022/04/02 21:28:09;;;;;;;10.27;3.47;;;;;;;0.26;50.82;100344.47;3454824;83;98497;-83
2022/04/02 21:33:11;;;;;;;12.63;3.63;;;;;;;0.19;51.23;100347.37;3468189;83;97469;-84
2022/04/02 21:38:12;;;;;;;8.93;3.22;;;;;;;0.11;51.43;100349.48;3415435;84;99017;-85
2022/04/02 21:43:14;;;;;;;11.00;3.50;;;;;;;0.02;51.59;100348.05;3478405;83;99136;-85
2022/04/02 21:48:16;;;;;;;8.18;3.17;;;;;;;-0.06;51.91;100357.47;3397680;84;98716;-86
2022/04/02 21:53:18;;;;;;;11.60;3.60;;;;;;;-0.12;52.24;100366.81;3434575;83;99190;-85
2022/04/02 21:58:20;;;;;;;10.37;3.40;;;;;;;-0.21;52.40;100367.33;3354645;84;98802;-85
2022/04/02 22:03:23;;;;;;;10.53;3.90;;;;;;;-0.29;52.75;100370.75;3455741;83;26467;-85
2022/04/02 22:08:25;;;;;;;10.20;3.33;;;;;;;-0.38;53.13;100372.61;3441830;83;98792;-84
2022/04/02 22:13:29;;;;;;;10.83;3.20;;;;;;;-0.46;53.39;100378.73;3455009;83;98034;-86
2022/04/02 22:18:31;;;;;;;10.35;3.25;;;;;;;-0.53;53.61;100382.95;3417413;84;99108;-86
2022/04/02 22:23:32;;;;;;;11.57;2.80;;;;;;;-0.59;53.74;100381.47;3468342;80;98953;-85
2022/04/02 22:28:34;;;;;;;10.60;3.00;;;;;;;-0.66;54.06;100385.14;3513446;82;99172;-85
2022/04/02 22:33:35;;;;;;;7.97;2.77;;;;;;;-0.72;54.32;100386.36;3577090;79;98700;-84
2022/04/02 22:38:37;;;;;;;8.85;2.55;;;;;;;-0.78;54.54;100387.01;3607104;80;98762;-84
2022/04/02 22:43:40;;;;;;;7.17;2.53;;;;;;;-0.84;54.78;100388.23;3590835;80;100128;-85
2022/04/02 22:48:41;;;;;;;8.87;2.57;;;;;;;-0.89;54.73;100388.33;3611059;79;99026;-84
2022/04/02 22:53:43;;;;;;;8.10;3.10;;;;;;;-0.92;54.84;100392.19;3604162;79;98921;-85
2022/04/02 22:58:45;;;;;;;9.73;2.60;;;;;;;-0.98;54.88;100402.31;3533958;81;98799;-85
2022/04/02 23:03:46;;;;;;;9.03;3.00;;;;;;;-1.04;55.20;100405.41;3515606;81;99126;-84
2022/04/02 23:08:48;;;;;;;8.97;3.33;;;;;;;-1.11;55.49;100397.70;3490553;83;98656;-87
2022/04/02 23:13:52;;;;;;;13.13;3.23;;;;;;;-1.14;55.99;100398.86;3590428;80;98986;-83
2022/04/02 23:18:52;;;;;;;11.27;3.47;;;;;;;-1.20;56.44;100402.19;3547774;81;98141;-85
2022/04/02 23:23:53;;;;;;;11.20;3.43;;;;;;;-1.25;56.97;100408.25;3518273;82;99171;-84
2022/04/02 23:28:57;;;;;;;16.53;4.40;;;;;;;-1.30;57.52;100411.05;3528249;82;99053;-85
2022/04/02 23:33:58;;;;;;;11.43;3.50;;;;;;;-1.34;58.16;100400.05;3534400;82;99016;-85
2022/04/02 23:39:02;;;;;;;8.47;2.67;;;;;;;-1.38;58.54;100410.41;3538183;82;98832;-84
2022/04/02 23:44:03;;;;;;;8.80;3.00;;;;;;;-1.43;59.59;100412.63;3520004;82;98737;-84
2022/04/02 23:49:04;;;;;;;9.37;3.20;;;;;;;-1.49;59.79;100416.53;3549419;82;98047;-83
2022/04/02 23:54:06;;;;;;;9.08;3.10;;;;;;;-1.53;59.94;100408.77;3531146;81;99215;-84
2022/04/02 23:59:09;;;;;;;8.70;3.20;;;;;;;-1.58;60.85;100414.25;3505646;83;98961;-84
